Airfield :
LOGIN :

Register | Disclaimer

   EN    FR    IT 

 










Legend :    VFR   Marginal VFR   IFR   Intensive IFR   Very Intensive IFR
Visi :
Ceiling :
>= 8 km
>= 3000ft
5 to 8 km
1000 to 3000 ft
1500m to 5 km
500 to 1000 ft
800 to 1500m
200 to 500 ft
< 800m
< 200 ft
Symbols :   Thunderstorms  Fog  Heavy snow  Heavy precipitations  Wind > 20 kt
SIGMETs :     Misc.  Thunderstorms  Icing  Turbulence  Mountain Waves  Volcanic Ashes






- Airport Elevation : 459 ft
- IATA code : CER


LFRC - Cherbourg / Maupertus

CURRENT METAR :
  • 302300Z AUTO 26005KT 9999 FEW012 BKN030 BKN035 12/12 Q1002

EXPIRED METARs :
  • 302230Z AUTO 21005KT 9999 FEW003/// BKN014/// BKN020/// ///TCU 12/12 Q1002
  • 302200Z AUTO 21003KT 6000 -RA FEW024 BKN045 OVC052 12/12 Q1002
  • 302130Z AUTO 19004KT 6000 -RA FEW018/// SCT031/// BKN037/// ///CB 12/12 Q1003
  • 302100Z AUTO 20006KT 4500 RA BR SCT021/// BKN026/// BKN031/// ///TCU 13/12 Q1003
  • 302030Z AUTO 24011KT 190V280 3200 +RA BR BKN006/// OVC021/// ///CB 13/13 Q1003

TAF TAF LFRC
Valid from the 30 at 15:00 until the 01 at 00:00 UTC


301400Z 3015/3024 20020G30KT 5000 RA BKN015
TEMPO 3015/3020 20020G35KT 3000 RA BKN005
BECMG 3018/3022 24010KT 9999 NSW BKN020
TEMPO 3022/3024 5000 SHRA BKN020TCU



MET'MAP, your aeronautical weather chart ! - Copyright ORBIFLY December 2007 - Disclaimer

ORBIFLY MET'MAP TEAM :

Programming & Development : Alexandra Zaïnal
Concept & original design : Baudouin d'Aumeries
Assistance for programming : Marc-Olivier Méhu
Technical & hardware support : Manuel Goepfert

Contact : metmap@orbifly.com




SOURCES & CREDITS :

   NOAA